createdAt,value
2023-11-18T00:03:57.026Z,100741.73
2023-11-18T00:08:59.168Z,100739.55
2023-11-18T00:14:01.422Z,100740.95
2023-11-18T00:19:06.168Z,100750.57
2023-11-18T00:24:08.893Z,100760.74
2023-11-18T00:29:11.701Z,100765.60
2023-11-18T00:34:13.649Z,100767.60
2023-11-18T00:39:15.604Z,100775.98
2023-11-18T00:44:18.764Z,100780.09
2023-11-18T00:49:21.501Z,100789.15
2023-11-18T00:54:24.562Z,100793.88
2023-11-18T00:59:27.688Z,100801.16
2023-11-18T01:04:30.070Z,100803.74
2023-11-18T01:09:37.608Z,100803.35
2023-11-18T01:14:40.771Z,100805.92
2023-11-18T01:19:43.257Z,100797.70
2023-11-18T01:24:46.954Z,100794.45
2023-11-18T01:29:49.763Z,100799.23
2023-11-18T01:34:52.047Z,100800.98
2023-11-18T01:39:54.097Z,100800.58
2023-11-18T01:44:57.135Z,100799.96
2023-11-18T01:50:00.957Z,100811.25
2023-11-18T01:55:07.366Z,100819.23
2023-11-18T02:00:12.032Z,100814.27
2023-11-18T02:05:14.272Z,100811.42
2023-11-18T02:10:18.313Z,100811.77
2023-11-18T02:15:22.128Z,100813.80
2023-11-18T02:20:25.486Z,100822.02
2023-11-18T02:25:29.591Z,100830.55
2023-11-18T02:30:31.697Z,100829.34
2023-11-18T02:35:43.919Z,100836.73
2023-11-18T02:40:48.886Z,100846.86
2023-11-18T02:45:52.074Z,100861.36
2023-11-18T02:50:55.165Z,100874.67
2023-11-18T02:56:03.230Z,100876.81
2023-11-18T03:01:05.670Z,100872.23
2023-11-18T03:06:07.889Z,100870.12
2023-11-18T03:11:10.043Z,100872.77
2023-11-18T03:16:13.609Z,100875.86
2023-11-18T03:21:16.020Z,100876.87
2023-11-18T03:26:18.049Z,100879.59
2023-11-18T03:31:20.642Z,100879.85
2023-11-18T03:36:22.685Z,100877.48
2023-11-18T03:41:24.618Z,100878.63
2023-11-18T03:46:26.619Z,100878.92
2023-11-18T03:51:29.541Z,100878.95
2023-11-18T03:56:31.548Z,100872.38
2023-11-18T04:01:33.653Z,100872.39
2023-11-18T04:06:35.997Z,100879.80
2023-11-18T04:11:39.297Z,100883.35
2023-11-18T04:16:41.372Z,100891.84
2023-11-18T04:21:45.821Z,100905.96
2023-11-18T04:26:48.838Z,100917.39
2023-11-18T04:31:51.254Z,100921.54
2023-11-18T04:36:53.284Z,100924.70
2023-11-18T04:41:57.095Z,100919.23
2023-11-18T04:46:59.276Z,100923.23
2023-11-18T04:52:01.593Z,100927.66
2023-11-18T04:57:04.172Z,100937.52
2023-11-18T05:02:07.150Z,100948.70
2023-11-18T05:07:09.257Z,100957.31
2023-11-18T05:12:11.341Z,100956.94
2023-11-18T05:17:13.386Z,100956.08
2023-11-18T05:22:15.451Z,100959.73
2023-11-18T05:27:18.618Z,100963.02
2023-11-18T05:32:23.905Z,100965.98
2023-11-18T05:37:26.067Z,100976.03
2023-11-18T05:42:30.716Z,100982.40
2023-11-18T05:47:37.700Z,100989.85
2023-11-18T05:52:39.866Z,100994.99
2023-11-18T05:57:42.783Z,101005.60
2023-11-18T06:02:44.965Z,101014.02
2023-11-18T06:07:48.140Z,101022.32
2023-11-18T06:12:50.175Z,101021.04
2023-11-18T06:17:52.313Z,101031.75
2023-11-18T06:22:55.015Z,101040.35
2023-11-18T06:27:58.893Z,101045.95
2023-11-18T06:33:01.069Z,101053.61
2023-11-18T06:38:03.619Z,101058.11
2023-11-18T06:43:11.607Z,101062.26
2023-11-18T06:48:15.602Z,101065.75
2023-11-18T06:53:17.708Z,101072.45
2023-11-18T06:58:19.673Z,101076.36
2023-11-18T07:03:22.641Z,101081.42
2023-11-18T07:08:25.243Z,101090.51
2023-11-18T07:13:27.621Z,101102.48
2023-11-18T07:18:35.008Z,101116.71
2023-11-18T07:23:37.958Z,101118.98
2023-11-18T07:28:40.602Z,101123.35
2023-11-18T07:33:45.387Z,101127.55
2023-11-18T07:38:53.147Z,101131.59
2023-11-18T07:43:57.079Z,101136.95
2023-11-18T07:49:02.279Z,101137.86
2023-11-18T07:54:04.789Z,101139.79
2023-11-18T07:59:09.075Z,101137.69
2023-11-18T08:04:11.238Z,101137.86
2023-11-18T08:09:18.238Z,101148.13
2023-11-18T08:14:20.452Z,101150.27
2023-11-18T08:19:23.856Z,101148.89
2023-11-18T08:24:25.990Z,101146.05
2023-11-18T08:29:32.076Z,101149.11
2023-11-18T08:34:36.457Z,101143.13
2023-11-18T08:39:38.429Z,101148.33
2023-11-18T08:44:40.795Z,101151.10
2023-11-18T08:49:47.044Z,101150.70
2023-11-18T08:55:07.787Z,101150.73
2023-11-18T09:00:30.775Z,101159.59
2023-11-18T09:05:36.600Z,101163.95
2023-11-18T09:10:39.109Z,101165.95
2023-11-18T09:15:41.142Z,101168.66
2023-11-18T09:20:43.328Z,101162.41
2023-11-18T09:25:47.932Z,101160.01
2023-11-18T09:30:54.898Z,101164.14
2023-11-18T09:36:00.041Z,101160.65
2023-11-18T09:41:04.608Z,101157.34
2023-11-18T09:46:14.272Z,101158.23
2023-11-18T09:51:24.468Z,101151.41
2023-11-18T09:57:09.272Z,101156.77
2023-11-18T10:02:12.022Z,101159.20
2023-11-18T10:07:17.503Z,101157.37
2023-11-18T10:12:24.624Z,101164.55
2023-11-18T10:17:28.237Z,101165.23
2023-11-18T10:22:33.131Z,101167.49
2023-11-18T10:27:35.196Z,101181.65
2023-11-18T10:32:37.898Z,101178.45
2023-11-18T10:37:43.900Z,101173.76
2023-11-18T10:42:49.805Z,101169.30
2023-11-18T10:47:53.389Z,101158.41
2023-11-18T10:52:55.657Z,101154.86
2023-11-18T10:57:59.319Z,101159.48
2023-11-18T11:03:05.008Z,101166.61
2023-11-18T11:08:08.814Z,101174.05
2023-11-18T11:13:12.124Z,101177.54
2023-11-18T11:18:24.042Z,101184.89
2023-11-18T11:23:45.474Z,101197.36
2023-11-18T11:29:10.721Z,101198.27
2023-11-18T11:34:21.364Z,101200.61
2023-11-18T11:39:26.341Z,101201.77
2023-11-18T11:44:32.925Z,101206.90
2023-11-18T11:49:45.507Z,101208.91
2023-11-18T11:55:12.915Z,101206.73
2023-11-18T12:00:17.691Z,101211.30
2023-11-18T12:05:28.261Z,101211.11
2023-11-18T12:10:32.729Z,101214.81
2023-11-18T12:15:57.756Z,101219.67
2023-11-18T12:21:03.297Z,101218.51
2023-11-18T12:26:45.185Z,101227.15
2023-11-18T12:31:47.510Z,101234.41
2023-11-18T12:37:53.938Z,101238.09
2023-11-18T12:43:01.197Z,101245.30
2023-11-18T12:48:12.778Z,101239.91
2023-11-18T12:53:27.980Z,101238.91
2023-11-18T12:58:34.915Z,101242.09
2023-11-18T13:03:38.149Z,101245.77
2023-11-18T13:08:47.106Z,101243.51
2023-11-18T13:13:50.572Z,101247.85
2023-11-18T13:18:56.890Z,101249.75
2023-11-18T13:23:59.038Z,101250.08
2023-11-18T13:29:03.229Z,101252.49
2023-11-18T13:34:07.837Z,101255.13
2023-11-18T13:39:17.765Z,101263.05
2023-11-18T13:44:36.561Z,101267.64
2023-11-18T13:49:42.963Z,101264.52
2023-11-18T13:54:48.536Z,101261.92
2023-11-18T13:59:51.767Z,101261.92
2023-11-18T14:04:56.371Z,101264.73
2023-11-18T14:10:00.584Z,101263.48
2023-11-18T14:15:04.468Z,101259.48
2023-11-18T14:20:13.334Z,101267.03
2023-11-18T14:25:16.110Z,101261.91
2023-11-18T14:30:18.357Z,101267.88
2023-11-18T14:35:21.424Z,101271.73
2023-11-18T14:40:26.584Z,101274.83
2023-11-18T14:45:28.648Z,101286.52
2023-11-18T14:50:32.571Z,101293.98
2023-11-18T14:55:35.062Z,101302.94
2023-11-18T15:00:37.150Z,101300.27
2023-11-18T15:05:39.230Z,101297.09
2023-11-18T15:10:43.458Z,101298.02
2023-11-18T15:15:48.945Z,101297.10
2023-11-18T15:20:52.826Z,101297.96
2023-11-18T15:25:55.456Z,101299.67
2023-11-18T15:30:57.571Z,101295.42
2023-11-18T15:35:59.711Z,101293.15
2023-11-18T15:41:01.981Z,101290.02
2023-11-18T15:46:07.337Z,101283.71
2023-11-18T15:51:09.473Z,101282.86
2023-11-18T15:56:11.945Z,101283.02
2023-11-18T16:01:14.843Z,101283.89
2023-11-18T16:06:18.569Z,101285.11
2023-11-18T16:11:20.743Z,101280.23
2023-11-18T16:16:26.053Z,101274.73
2023-11-18T16:21:28.745Z,101272.06
2023-11-18T16:26:30.966Z,101268.17
2023-11-18T16:31:38.836Z,101270.90
2023-11-18T16:36:43.442Z,101266.52
2023-11-18T16:41:46.410Z,101265.33
2023-11-18T16:46:50.955Z,101268.48
2023-11-18T16:51:59.222Z,101271.06
2023-11-18T16:57:03.006Z,101275.79
2023-11-18T17:02:06.709Z,101270.48
2023-11-18T17:07:10.872Z,101268.56
2023-11-18T17:12:13.145Z,101266.56
2023-11-18T17:17:15.549Z,101259.11
2023-11-18T17:22:17.733Z,101261.36
2023-11-18T17:27:19.790Z,101263.88
2023-11-18T17:32:22.051Z,101263.09
2023-11-18T17:37:24.444Z,101264.38
2023-11-18T17:42:26.596Z,101271.31
2023-11-18T17:47:29.050Z,101273.17
2023-11-18T17:52:32.658Z,101280.49
2023-11-18T17:57:36.338Z,101285.63
2023-11-18T18:02:40.594Z,101280.02
2023-11-18T18:07:43.110Z,101275.92
2023-11-18T18:12:47.533Z,101275.55
2023-11-18T18:17:50.253Z,101269.71
2023-11-18T18:22:52.598Z,101280.54
2023-11-18T18:27:54.981Z,101291.01
2023-11-18T18:32:57.028Z,101297.61
2023-11-18T18:37:59.560Z,101290.66
2023-11-18T18:43:01.693Z,101285.61
2023-11-18T18:48:04.232Z,101288.67
2023-11-18T18:53:08.052Z,101289.23
2023-11-18T18:58:10.353Z,101290.15
2023-11-18T19:03:12.919Z,101292.71
2023-11-18T19:08:15.390Z,101290.36
2023-11-18T19:13:17.517Z,101289.67
2023-11-18T19:18:21.687Z,101281.83
2023-11-18T19:23:24.081Z,101277.73
2023-11-18T19:28:26.244Z,101270.38
2023-11-18T19:33:28.450Z,101256.50
2023-11-18T19:38:30.962Z,101239.36
2023-11-18T19:43:34.313Z,101234.80
2023-11-18T19:48:37.150Z,101236.17
2023-11-18T19:53:40.493Z,101230.50
2023-11-18T19:58:42.751Z,101219.00
2023-11-18T20:03:45.276Z,101206.36
2023-11-18T20:08:47.561Z,101192.91
2023-11-18T20:13:49.714Z,101200.17
2023-11-18T20:18:52.791Z,101204.63
2023-11-18T20:23:54.936Z,101213.98
2023-11-18T20:28:57.664Z,101212.16
2023-11-18T20:34:00.432Z,101208.33
2023-11-18T20:39:02.759Z,101207.05
2023-11-18T20:44:05.424Z,101210.31
2023-11-18T20:49:07.913Z,101204.16
2023-11-18T20:54:11.749Z,101200.03
2023-11-18T20:59:14.442Z,101204.19
2023-11-18T21:04:18.011Z,101211.69
2023-11-18T21:09:21.470Z,101209.11
2023-11-18T21:14:23.722Z,101203.04
2023-11-18T21:19:27.388Z,101199.55
2023-11-18T21:24:29.458Z,101196.81
2023-11-18T21:29:32.569Z,101195.02
2023-11-18T21:34:34.638Z,101200.10
2023-11-18T21:39:39.500Z,101206.39
2023-11-18T21:44:41.651Z,101216.31
2023-11-18T21:49:51.772Z,101221.13
2023-11-18T21:54:55.192Z,101220.95
2023-11-18T21:59:58.309Z,101217.77
2023-11-18T22:05:00.772Z,101220.91
2023-11-18T22:10:03.179Z,101218.90
2023-11-18T22:15:07.637Z,101218.06
2023-11-18T22:20:15.025Z,101207.02
2023-11-18T22:25:17.109Z,101188.86
2023-11-18T22:30:20.657Z,101177.04
2023-11-18T22:35:24.481Z,101165.37
2023-11-18T22:40:27.278Z,101155.11
2023-11-18T22:45:29.549Z,101141.80
2023-11-18T22:50:36.076Z,101127.73
2023-11-18T22:55:39.150Z,101119.55
2023-11-18T23:00:55.783Z,101108.73
2023-11-18T23:11:12.827Z,101083.80
2023-11-18T23:16:14.874Z,101083.36
2023-11-18T23:21:16.814Z,101083.27
2023-11-18T23:26:19.931Z,101086.48
2023-11-18T23:31:24.502Z,101088.15
2023-11-18T23:36:26.714Z,101090.81
2023-11-18T23:41:29.443Z,101087.33
2023-11-18T23:46:32.416Z,101088.64
2023-11-18T23:51:34.449Z,101086.08
2023-11-18T23:56:36.526Z,101073.05
